createdAt,value
2018-09-01T00:02:04.824Z,12.00
2018-09-01T00:04:33.128Z,11.95
2018-09-01T00:07:01.435Z,11.82
2018-09-01T00:09:29.887Z,11.69
2018-09-01T00:11:58.191Z,11.53
2018-09-01T00:14:26.486Z,11.83
2018-09-01T00:16:54.766Z,11.82
2018-09-01T00:19:23.078Z,11.88
2018-09-01T00:21:51.438Z,11.85
2018-09-01T00:24:19.751Z,11.68
2018-09-01T00:26:48.059Z,11.70
2018-09-01T00:29:16.385Z,11.53
2018-09-01T00:31:44.694Z,11.73
2018-09-01T00:34:13.030Z,11.93
2018-09-01T00:36:41.322Z,11.91
2018-09-01T00:39:09.623Z,11.99
2018-09-01T00:41:37.906Z,11.79
2018-09-01T00:44:06.263Z,11.79
2018-09-01T00:46:34.834Z,11.74
2018-09-01T00:49:03.148Z,11.75
2018-09-01T00:51:31.554Z,11.66
2018-09-01T00:53:59.872Z,11.63
2018-09-01T00:56:28.196Z,11.56
2018-09-01T00:58:56.521Z,11.84
2018-09-01T01:01:24.927Z,11.67
2018-09-01T01:03:53.246Z,11.78
2018-09-01T01:06:21.577Z,11.81
2018-09-01T01:08:49.942Z,11.69
2018-09-01T01:11:18.354Z,11.62
2018-09-01T01:13:46.912Z,11.47
2018-09-01T01:16:15.765Z,11.49
2018-09-01T01:18:44.167Z,11.29
2018-09-01T01:21:12.483Z,11.44
2018-09-01T01:23:40.918Z,11.29
2018-09-01T01:26:09.819Z,11.31
2018-09-01T01:28:38.194Z,11.24
2018-09-01T01:31:06.594Z,11.42
2018-09-01T01:33:34.988Z,11.43
2018-09-01T01:36:03.310Z,11.63
2018-09-01T01:38:31.603Z,11.53
2018-09-01T01:40:59.891Z,11.70
2018-09-01T01:43:28.252Z,11.66
2018-09-01T01:45:56.585Z,11.60
2018-09-01T01:48:24.897Z,11.50
2018-09-01T01:50:53.202Z,11.50
2018-09-01T01:53:21.573Z,11.48
2018-09-01T01:55:49.874Z,11.57
2018-09-01T01:58:18.219Z,11.45
2018-09-01T02:00:46.593Z,11.35
2018-09-01T02:03:14.900Z,11.21
2018-09-01T02:05:43.227Z,11.37
2018-09-01T02:08:11.565Z,11.45
2018-09-01T02:10:39.898Z,11.44
2018-09-01T02:13:08.183Z,11.55
2018-09-01T02:15:36.496Z,11.14
2018-09-01T02:18:04.819Z,11.05
2018-09-01T02:20:33.168Z,11.14
2018-09-01T02:23:01.492Z,10.99
2018-09-01T02:25:29.823Z,10.89
2018-09-01T02:27:58.260Z,10.88
2018-09-01T02:30:26.605Z,10.85
2018-09-01T02:32:54.916Z,11.01
2018-09-01T02:35:23.252Z,10.90
2018-09-01T02:37:51.581Z,11.23
2018-09-01T02:40:19.976Z,10.89
2018-09-01T02:42:48.344Z,10.76
2018-09-01T02:45:16.678Z,10.76
2018-09-01T02:47:44.979Z,10.94
2018-09-01T02:50:13.286Z,10.75
2018-09-01T02:52:41.624Z,10.90
2018-09-01T02:55:09.935Z,10.87
2018-09-01T02:57:38.276Z,10.73
2018-09-01T03:00:28.286Z,11.08
2018-09-01T03:02:56.572Z,10.93
2018-09-01T03:05:24.924Z,10.83
2018-09-01T03:07:53.214Z,10.83
2018-09-01T03:10:21.495Z,11.02
2018-09-01T03:12:49.834Z,10.90
2018-09-01T03:15:18.154Z,10.88
2018-09-01T03:17:46.435Z,10.65
2018-09-01T03:20:14.808Z,10.67
2018-09-01T03:22:43.078Z,10.94
2018-09-01T03:25:11.439Z,10.83
2018-09-01T03:27:39.856Z,10.86
2018-09-01T03:30:08.296Z,10.86
2018-09-01T03:32:36.606Z,10.66
2018-09-01T03:35:05.194Z,10.43
2018-09-01T03:37:33.565Z,10.62
2018-09-01T03:40:01.922Z,10.57
2018-09-01T03:42:30.224Z,10.81
2018-09-01T03:44:58.506Z,10.72
2018-09-01T03:47:26.875Z,10.74
2018-09-01T03:49:55.160Z,10.44
2018-09-01T03:52:23.436Z,10.35
2018-09-01T03:54:51.759Z,10.30
2018-09-01T03:57:20.110Z,10.51
2018-09-01T03:59:48.465Z,10.32
2018-09-01T04:02:16.773Z,10.48
2018-09-01T04:04:45.226Z,10.59
2018-09-01T04:07:13.574Z,10.44
2018-09-01T04:09:41.961Z,10.44
2018-09-01T04:12:10.283Z,10.48
2018-09-01T04:14:38.644Z,10.45
2018-09-01T04:17:07.019Z,10.59
2018-09-01T04:19:35.347Z,10.30
2018-09-01T04:22:03.718Z,10.40
2018-09-01T04:24:32.156Z,10.44
2018-09-01T04:27:00.537Z,10.47
2018-09-01T04:29:28.937Z,10.41
2018-09-01T04:31:57.323Z,10.46
2018-09-01T04:34:25.604Z,10.52
2018-09-01T04:36:53.908Z,10.26
2018-09-01T04:39:22.304Z,10.26
2018-09-01T04:41:50.980Z,10.39
2018-09-01T04:44:19.319Z,10.71
2018-09-01T04:46:47.636Z,10.71
2018-09-01T04:49:15.954Z,10.65
2018-09-01T04:51:44.245Z,10.32
2018-09-01T04:54:12.568Z,10.46
2018-09-01T04:56:40.875Z,10.40
2018-09-01T04:59:09.213Z,10.44
2018-09-01T05:01:37.508Z,10.43
2018-09-01T05:04:05.805Z,10.61
2018-09-01T05:06:34.108Z,10.49
2018-09-01T05:09:02.460Z,10.59
2018-09-01T05:11:30.772Z,10.77
2018-09-01T05:14:00.193Z,10.64
2018-09-01T05:16:28.513Z,10.80
2018-09-01T05:18:56.909Z,10.80
2018-09-01T05:21:26.209Z,10.96
2018-09-01T05:23:54.540Z,11.08
2018-09-01T05:26:23.835Z,11.36
2018-09-01T05:28:52.151Z,11.31
2018-09-01T05:31:20.454Z,11.33
2018-09-01T05:33:48.749Z,11.58
2018-09-01T05:36:17.039Z,11.54
2018-09-01T05:38:45.360Z,11.50
2018-09-01T05:41:13.656Z,11.14
2018-09-01T05:43:41.989Z,11.59
2018-09-01T05:46:16.630Z,11.39
2018-09-01T05:48:44.915Z,11.52
2018-09-01T05:51:13.228Z,11.80
2018-09-01T05:53:41.532Z,11.86
2018-09-01T05:56:09.875Z,11.94
2018-09-01T05:58:38.240Z,12.22
2018-09-01T06:01:06.583Z,12.29
2018-09-01T06:03:34.889Z,12.26
2018-09-01T06:06:03.280Z,12.17
2018-09-01T06:08:31.523Z,12.64
2018-09-01T06:10:59.902Z,12.74
2018-09-01T06:13:28.219Z,13.05
2018-09-01T06:15:56.544Z,12.73
2018-09-01T06:18:24.859Z,13.18
2018-09-01T06:20:53.150Z,15.52
2018-09-01T06:23:21.491Z,16.87
2018-09-01T06:25:49.787Z,18.34
2018-09-01T06:28:25.072Z,19.50
2018-09-01T06:30:54.348Z,20.24
2018-09-01T06:33:22.664Z,21.57
2018-09-01T06:35:50.965Z,22.67
2018-09-01T06:38:19.366Z,23.47
2018-09-01T06:40:48.683Z,21.89
2018-09-01T06:43:17.004Z,23.75
2018-09-01T06:45:45.331Z,24.92
2018-09-01T06:48:13.659Z,25.82
2018-09-01T06:50:41.948Z,26.39
2018-09-01T06:53:10.286Z,25.95
2018-09-01T06:55:38.626Z,26.83
2018-09-01T06:58:06.922Z,27.33
2018-09-01T07:00:35.255Z,27.89
2018-09-01T07:03:03.546Z,26.99
2018-09-01T07:05:31.871Z,27.00
2018-09-01T07:08:00.211Z,28.34
2018-09-01T07:10:28.529Z,26.34
2018-09-01T07:12:56.847Z,26.98
2018-09-01T07:15:25.169Z,27.39
2018-09-01T07:17:53.489Z,26.42
2018-09-01T07:20:21.799Z,25.83
2018-09-01T07:22:50.135Z,26.63
2018-09-01T07:25:18.464Z,25.15
2018-09-01T07:27:46.774Z,26.61
2018-09-01T07:30:15.176Z,26.66
2018-09-01T07:32:43.413Z,28.13
2018-09-01T07:35:11.844Z,26.30
2018-09-01T07:37:40.181Z,27.02
2018-09-01T07:40:08.560Z,26.81
2018-09-01T07:42:36.872Z,26.24
2018-09-01T07:45:05.191Z,27.37
2018-09-01T07:47:33.518Z,26.35
2018-09-01T07:50:01.845Z,25.91
2018-09-01T07:52:30.140Z,25.07
2018-09-01T07:54:58.567Z,24.76
2018-09-01T07:57:27.030Z,25.17
2018-09-01T07:59:55.459Z,25.45
2018-09-01T08:02:23.860Z,26.81
2018-09-01T08:04:53.550Z,27.96
2018-09-01T08:07:21.846Z,26.80
2018-09-01T08:09:50.138Z,27.63
2018-09-01T08:12:18.484Z,26.03
2018-09-01T08:14:46.773Z,26.56
2018-09-01T08:17:15.126Z,25.42
2018-09-01T08:19:43.531Z,25.42
2018-09-01T08:22:12.955Z,28.76
2018-09-01T08:24:41.289Z,26.65
2018-09-01T08:27:09.637Z,27.31
2018-09-01T08:29:37.975Z,28.16
2018-09-01T08:32:06.284Z,30.77
2018-09-01T08:34:34.616Z,30.12
2018-09-01T08:37:03.050Z,30.42
2018-09-01T08:39:31.464Z,30.23
2018-09-01T08:41:59.911Z,29.03
2018-09-01T08:44:28.462Z,28.85
2018-09-01T08:46:57.752Z,28.26
2018-09-01T08:49:26.323Z,28.18
2018-09-01T08:51:54.976Z,29.89
2018-09-01T08:54:23.396Z,28.78
2018-09-01T08:56:52.028Z,29.15
2018-09-01T08:59:20.398Z,30.77
2018-09-01T09:01:48.807Z,29.63
2018-09-01T09:04:17.213Z,29.32
2018-09-01T09:06:45.592Z,29.16
2018-09-01T09:09:14.012Z,31.11
2018-09-01T09:11:42.443Z,28.66
2018-09-01T09:14:10.807Z,29.17
2018-09-01T09:16:39.226Z,29.93
2018-09-01T09:19:07.679Z,30.39
2018-09-01T09:21:36.024Z,30.93
2018-09-01T09:24:04.428Z,32.83
2018-09-01T09:26:32.836Z,29.99
2018-09-01T09:29:01.190Z,30.51
2018-09-01T09:31:29.579Z,30.94
2018-09-01T09:33:58.050Z,30.64
2018-09-01T09:36:26.454Z,31.36
2018-09-01T09:38:54.806Z,28.80
2018-09-01T09:41:23.141Z,26.78
2018-09-01T09:43:51.535Z,27.98
2018-09-01T09:46:19.895Z,28.78
2018-09-01T09:48:48.267Z,29.05
2018-09-01T09:51:17.729Z,27.47
2018-09-01T09:53:46.012Z,29.44
2018-09-01T09:56:14.338Z,29.78
2018-09-01T09:58:42.663Z,29.76
2018-09-01T10:01:16.171Z,30.53
2018-09-01T10:03:44.430Z,30.97
2018-09-01T10:06:12.722Z,32.05
2018-09-01T10:08:41.045Z,30.58
2018-09-01T10:11:09.517Z,30.77
2018-09-01T10:13:37.814Z,29.80
2018-09-01T10:16:06.247Z,28.43
2018-09-01T10:18:34.612Z,29.50
2018-09-01T10:21:03.052Z,29.07
2018-09-01T10:23:31.441Z,30.65
2018-09-01T10:25:59.866Z,29.28
2018-09-01T10:28:28.296Z,29.24
2018-09-01T10:30:56.707Z,30.23
2018-09-01T10:33:25.159Z,30.64
2018-09-01T10:35:53.555Z,30.07
2018-09-01T10:38:21.971Z,31.03
2018-09-01T10:40:50.344Z,29.83
2018-09-01T10:43:18.727Z,30.41
2018-09-01T10:45:47.124Z,30.26
2018-09-01T10:48:15.532Z,29.90
2018-09-01T10:50:44.046Z,28.56
2018-09-01T10:53:12.470Z,30.78
2018-09-01T10:55:40.910Z,29.93
2018-09-01T10:58:09.376Z,28.87
2018-09-01T11:00:37.766Z,28.99
2018-09-01T11:03:06.165Z,30.64
2018-09-01T11:05:34.639Z,31.35
2018-09-01T11:08:03.375Z,29.40
2018-09-01T11:10:31.691Z,31.80
2018-09-01T11:13:00.051Z,29.83
2018-09-01T11:15:28.469Z,31.04
2018-09-01T11:18:03.306Z,30.61
2018-09-01T11:20:31.596Z,29.04
2018-09-01T11:22:59.875Z,29.90
2018-09-01T11:25:28.831Z,28.80
2018-09-01T11:27:57.151Z,28.96
2018-09-01T11:30:25.436Z,29.78
2018-09-01T11:32:53.751Z,29.37
2018-09-01T11:35:22.064Z,28.89
2018-09-01T11:37:50.509Z,30.19
2018-09-01T11:40:18.828Z,27.94
2018-09-01T11:42:47.357Z,29.88
2018-09-01T11:45:16.036Z,27.38
2018-09-01T11:47:44.510Z,27.18
2018-09-01T11:50:12.824Z,28.16
2018-09-01T11:52:41.151Z,28.52
2018-09-01T11:55:09.461Z,28.24
2018-09-01T11:57:37.807Z,28.33
2018-09-01T12:00:06.233Z,28.85
2018-09-01T12:02:34.750Z,27.35
2018-09-01T12:05:03.042Z,27.83
2018-09-01T12:07:31.358Z,26.77
2018-09-01T12:09:59.663Z,26.34
2018-09-01T12:12:27.939Z,25.47
2018-09-01T12:14:56.227Z,25.67
2018-09-01T12:17:24.821Z,25.54
2018-09-01T12:19:53.164Z,25.09
2018-09-01T12:22:21.583Z,25.56
2018-09-01T12:24:49.867Z,25.13
2018-09-01T12:27:20.281Z,25.44
2018-09-01T12:29:48.630Z,25.56
2018-09-01T12:32:16.944Z,25.70
2018-09-01T12:34:45.383Z,25.13
2018-09-01T12:37:13.738Z,24.98
2018-09-01T12:39:42.102Z,24.64
2018-09-01T12:42:10.646Z,24.44
2018-09-01T12:44:39.302Z,24.86
2018-09-01T12:47:08.163Z,25.13
2018-09-01T12:49:36.748Z,25.31
2018-09-01T12:52:05.088Z,25.11
2018-09-01T12:54:33.399Z,24.45
2018-09-01T12:57:01.882Z,24.21
2018-09-01T12:59:30.307Z,24.10
2018-09-01T13:01:58.848Z,24.59
2018-09-01T13:04:27.226Z,24.75
2018-09-01T13:06:55.595Z,23.20
2018-09-01T13:09:23.995Z,23.93
2018-09-01T13:11:52.480Z,23.83
2018-09-01T13:14:20.876Z,23.58
2018-09-01T13:16:49.361Z,24.23
2018-09-01T13:19:17.749Z,23.96
2018-09-01T13:21:46.119Z,24.64
2018-09-01T13:24:14.582Z,24.13
2018-09-01T13:26:43.074Z,24.27
2018-09-01T13:29:11.445Z,24.01
2018-09-01T13:31:39.970Z,24.07
2018-09-01T13:34:08.284Z,23.34
2018-09-01T13:36:36.667Z,22.96
2018-09-01T13:39:05.950Z,22.90
2018-09-01T13:41:34.233Z,23.50
2018-09-01T13:44:02.550Z,22.89
2018-09-01T13:46:31.108Z,23.00
2018-09-01T13:48:59.494Z,23.29
2018-09-01T13:51:27.974Z,23.04
2018-09-01T13:53:56.344Z,24.10
2018-09-01T13:56:24.803Z,24.24
2018-09-01T13:58:53.304Z,24.08
2018-09-01T14:01:21.694Z,23.91
2018-09-01T14:03:50.000Z,24.39
2018-09-01T14:06:18.644Z,24.39
2018-09-01T14:08:47.166Z,24.49
2018-09-01T14:11:16.557Z,23.34
2018-09-01T14:13:45.032Z,23.06
2018-09-01T14:16:14.278Z,22.89
2018-09-01T14:18:42.665Z,22.65
2018-09-01T14:21:11.645Z,22.99
2018-09-01T14:23:40.264Z,23.08
2018-09-01T14:26:08.652Z,23.51
2018-09-01T14:28:37.068Z,23.36
2018-09-01T14:31:05.601Z,23.26
2018-09-01T14:33:33.996Z,23.46
2018-09-01T14:36:04.076Z,23.79
2018-09-01T14:38:31.247Z,23.35
2018-09-01T14:40:59.857Z,23.15
2018-09-01T14:43:28.213Z,22.36
2018-09-01T14:45:57.107Z,22.03
2018-09-01T14:48:31.994Z,22.14
2018-09-01T14:51:00.438Z,22.28
2018-09-01T14:53:28.772Z,22.58
2018-09-01T14:55:57.442Z,22.57
2018-09-01T14:58:26.970Z,22.73
2018-09-01T15:00:56.481Z,22.48
2018-09-01T15:03:27.627Z,22.73
2018-09-01T15:05:56.340Z,22.55
2018-09-01T15:08:25.352Z,22.68
2018-09-01T15:10:53.708Z,22.97
2018-09-01T15:13:22.620Z,23.13
2018-09-01T15:15:50.998Z,23.01
2018-09-01T15:18:20.307Z,22.73
2018-09-01T15:20:48.803Z,23.12
2018-09-01T15:23:17.196Z,22.59
2018-09-01T15:25:45.838Z,23.02
2018-09-01T15:28:14.626Z,22.70
2018-09-01T15:30:43.602Z,22.85
2018-09-01T15:33:12.816Z,22.73
2018-09-01T15:35:41.282Z,22.77
2018-09-01T15:38:09.577Z,23.19
2018-09-01T15:40:38.568Z,22.11
2018-09-01T15:43:06.968Z,21.43
2018-09-01T15:45:35.665Z,21.75
2018-09-01T15:48:04.234Z,21.82
2018-09-01T15:50:32.535Z,21.55
2018-09-01T15:53:00.972Z,22.17
2018-09-01T15:55:29.367Z,21.87
2018-09-01T15:57:57.910Z,22.12
2018-09-01T16:00:26.383Z,22.58
2018-09-01T16:02:54.747Z,22.50
2018-09-01T16:05:23.603Z,21.84
2018-09-01T16:07:53.937Z,22.04
2018-09-01T16:10:22.315Z,22.45
2018-09-01T16:12:51.322Z,22.35
2018-09-01T16:15:20.109Z,21.39
2018-09-01T16:17:48.674Z,21.90
2018-09-01T16:20:17.321Z,22.15
2018-09-01T16:22:46.241Z,21.65
2018-09-01T16:25:15.374Z,21.98
2018-09-01T16:27:43.956Z,21.84
2018-09-01T16:30:12.338Z,21.32
2018-09-01T16:32:41.092Z,21.93
2018-09-01T16:35:09.561Z,21.42
2018-09-01T16:37:38.311Z,21.70
2018-09-01T16:40:07.069Z,21.99
2018-09-01T16:42:35.669Z,22.24
2018-09-01T16:45:03.981Z,21.81
2018-09-01T16:47:32.310Z,22.20
2018-09-01T16:50:01.136Z,21.45
2018-09-01T16:52:29.624Z,21.26
2018-09-01T16:54:57.952Z,20.94
2018-09-01T16:57:26.359Z,21.51
2018-09-01T16:59:54.663Z,21.88
2018-09-01T17:02:23.897Z,21.84
2018-09-01T17:04:52.294Z,21.63
2018-09-01T17:07:20.948Z,21.81
2018-09-01T17:09:49.368Z,21.27
2018-09-01T17:12:17.757Z,21.77
2018-09-01T17:14:46.249Z,21.69
2018-09-01T17:17:14.590Z,21.40
2018-09-01T17:19:43.137Z,21.30
2018-09-01T17:22:11.621Z,21.39
2018-09-01T17:24:39.918Z,21.67
2018-09-01T17:27:08.284Z,21.73
2018-09-01T17:29:37.544Z,21.60
2018-09-01T17:32:05.990Z,21.28
2018-09-01T17:34:34.493Z,21.40
2018-09-01T17:37:03.828Z,20.89
2018-09-01T17:39:32.239Z,21.18
2018-09-01T17:42:00.727Z,20.92
2018-09-01T17:44:29.043Z,20.96
2018-09-01T17:46:57.383Z,20.77
2018-09-01T17:49:26.233Z,20.79
2018-09-01T17:51:54.602Z,20.28
2018-09-01T17:54:26.044Z,20.22
2018-09-01T17:56:54.519Z,20.31
2018-09-01T17:59:23.125Z,20.15
2018-09-01T18:01:51.702Z,20.20
2018-09-01T18:04:20.246Z,19.99
2018-09-01T18:06:49.136Z,19.85
2018-09-01T18:09:18.157Z,19.88
2018-09-01T18:11:46.877Z,19.72
2018-09-01T18:14:15.635Z,19.79
2018-09-01T18:16:44.944Z,19.88
2018-09-01T18:19:13.279Z,19.74
2018-09-01T18:21:41.979Z,19.43
2018-09-01T18:24:10.377Z,19.23
2018-09-01T18:26:39.533Z,18.87
2018-09-01T18:29:08.287Z,18.90
2018-09-01T18:31:36.833Z,18.83
2018-09-01T18:34:05.140Z,18.94
2018-09-01T18:36:33.703Z,18.93
2018-09-01T18:39:02.523Z,18.85
2018-09-01T18:41:30.928Z,18.77
2018-09-01T18:43:59.227Z,18.27
2018-09-01T18:46:28.603Z,18.45
2018-09-01T18:48:56.952Z,17.96
2018-09-01T18:51:25.935Z,17.97
2018-09-01T18:53:54.231Z,17.80
2018-09-01T18:56:22.835Z,17.64
2018-09-01T18:58:51.220Z,17.72
2018-09-01T19:01:19.857Z,17.33
2018-09-01T19:03:48.243Z,17.06
2018-09-01T19:06:16.568Z,17.30
2018-09-01T19:08:45.101Z,17.49
2018-09-01T19:11:13.435Z,17.27
2018-09-01T19:13:41.885Z,17.18
2018-09-01T19:16:10.198Z,17.01
2018-09-01T19:18:38.612Z,16.95
2018-09-01T19:21:07.206Z,16.64
2018-09-01T19:23:35.523Z,16.69
2018-09-01T19:26:04.107Z,16.42
2018-09-01T19:28:32.583Z,16.48
2018-09-01T19:31:01.182Z,16.60
2018-09-01T19:33:29.765Z,16.49
2018-09-01T19:35:58.359Z,16.29
2018-09-01T19:38:26.773Z,16.04
2018-09-01T19:40:55.248Z,16.02
2018-09-01T19:43:23.716Z,15.78
2018-09-01T19:45:52.243Z,16.06
2018-09-01T19:48:20.583Z,15.87
2018-09-01T19:50:49.081Z,16.12
2018-09-01T19:53:17.397Z,15.93
2018-09-01T19:55:45.697Z,15.84
2018-09-01T19:58:14.059Z,15.64
2018-09-01T20:00:42.402Z,15.49
2018-09-01T20:03:10.756Z,15.36
2018-09-01T20:05:39.476Z,15.69
2018-09-01T20:08:07.988Z,15.42
2018-09-01T20:10:36.380Z,15.35
2018-09-01T20:13:04.850Z,15.31
2018-09-01T20:15:33.205Z,15.28
2018-09-01T20:18:01.515Z,15.22
2018-09-01T20:20:29.915Z,15.29
2018-09-01T20:22:58.487Z,15.22
2018-09-01T20:25:27.328Z,14.89
2018-09-01T20:27:56.043Z,14.96
2018-09-01T20:30:24.343Z,15.29
2018-09-01T20:32:52.627Z,14.91
2018-09-01T20:35:26.306Z,15.03
2018-09-01T20:37:56.049Z,15.12
2018-09-01T20:40:24.314Z,14.83
2018-09-01T20:42:52.625Z,14.72
2018-09-01T20:45:20.957Z,14.59
2018-09-01T20:47:49.248Z,14.72
2018-09-01T20:50:17.589Z,14.76
2018-09-01T20:52:46.037Z,14.76
2018-09-01T20:55:14.346Z,14.52
2018-09-01T20:57:42.846Z,14.43
2018-09-01T21:00:11.127Z,14.30
2018-09-01T21:02:39.456Z,14.47
2018-09-01T21:05:08.815Z,14.37
2018-09-01T21:07:37.197Z,14.30
2018-09-01T21:10:05.486Z,14.24
2018-09-01T21:12:34.803Z,14.24
2018-09-01T21:15:03.252Z,14.27
2018-09-01T21:17:32.020Z,14.28
2018-09-01T21:20:00.643Z,13.97
2018-09-01T21:22:28.964Z,13.80
2018-09-01T21:25:00.122Z,14.07
2018-09-01T21:27:28.472Z,13.88
2018-09-01T21:29:56.967Z,13.82
2018-09-01T21:32:25.495Z,13.82
2018-09-01T21:34:53.863Z,13.88
2018-09-01T21:37:22.142Z,13.83
2018-09-01T21:39:51.528Z,13.82
2018-09-01T21:42:20.160Z,13.51
2018-09-01T21:44:48.727Z,13.66
2018-09-01T21:47:17.037Z,13.98
2018-09-01T21:49:46.382Z,13.55
2018-09-01T21:54:50.287Z,13.38
2018-09-01T21:57:18.618Z,13.45
2018-09-01T21:59:46.980Z,13.65
2018-09-01T22:02:26.029Z,13.51
2018-09-01T22:04:59.701Z,13.48
2018-09-01T22:07:28.161Z,13.35
2018-09-01T22:10:02.806Z,13.59
2018-09-01T22:12:31.099Z,13.30
2018-09-01T22:14:59.536Z,13.34
2018-09-01T22:17:28.220Z,13.63
2018-09-01T22:19:56.478Z,13.52
2018-09-01T22:22:24.759Z,13.29
2018-09-01T22:24:53.177Z,13.29
2018-09-01T22:27:21.617Z,13.31
2018-09-01T22:29:50.008Z,13.44
2018-09-01T22:32:18.516Z,13.12
2018-09-01T22:34:46.958Z,12.93
2018-09-01T22:37:15.311Z,12.88
2018-09-01T22:39:43.779Z,13.07
2018-09-01T22:42:12.095Z,13.23
2018-09-01T22:44:40.485Z,13.42
2018-09-01T22:47:11.399Z,13.05
2018-09-01T22:49:39.881Z,12.92
2018-09-01T22:52:08.265Z,13.12
2018-09-01T22:54:36.671Z,13.06
2018-09-01T22:57:05.252Z,13.08
2018-09-01T22:59:33.599Z,12.85
2018-09-01T23:02:02.015Z,12.71
2018-09-01T23:04:30.562Z,12.92
2018-09-01T23:06:59.014Z,13.10
2018-09-01T23:09:27.463Z,12.89
2018-09-01T23:11:55.804Z,12.74
2018-09-01T23:14:24.363Z,12.82
2018-09-01T23:16:52.633Z,12.71
2018-09-01T23:19:21.142Z,12.84
2018-09-01T23:21:49.542Z,12.68
2018-09-01T23:24:17.942Z,12.95
2018-09-01T23:26:46.382Z,12.81
2018-09-01T23:29:14.664Z,12.81
2018-09-01T23:31:43.032Z,12.95
2018-09-01T23:34:11.306Z,12.44
2018-09-01T23:36:39.733Z,12.69
2018-09-01T23:39:09.042Z,12.55
2018-09-01T23:41:37.548Z,12.87
2018-09-01T23:44:05.959Z,12.74
2018-09-01T23:46:34.344Z,12.84
2018-09-01T23:49:02.754Z,12.84
2018-09-01T23:51:31.217Z,12.86
2018-09-01T23:53:59.687Z,12.65
2018-09-01T23:56:28.054Z,12.71
2018-09-01T23:58:56.408Z,12.40
